Terminal Aerodrome Forecast
Issued by NWS Wilmington, OH

Current Version | Previous Version | Text Only | Print | Product List | Glossary Off
Versions: 1 2 3 4 5 6 7 8 9 10 11 12 13 14 15 16 17 18 19 20 21 22 23 24 25 26

511
FTUS41 KILN 081929 AAB
TAFCVG
TAF AMD
KCVG 081929Z 0819/0924 26007KT 2SM -SN BKN005 OVC015
     FM082000 26006KT 3SM -SN SCT005 OVC015
     FM082300 29010KT 3SM -SN BKN008 OVC015
     FM090200 28012G22KT 1SM -SN BKN008 OVC015
     FM090600 28012G20KT 5SM -SN SCT008 OVC012=

USA.gov is the U.S. government's official web portal to all federal, state and local government web resources and services.